Hendersonville, North Carolina
Current Conditions -  °F | °C
As of 10:54 AM on Wednesday 28 Jan 2015 (Local Time) from KAVL Reporting Station
Clear Clear  
Wind Chill: 20°   Ceiling: Unl
Heat Index: 33°   Visibility: 10mi
Dew Point: 10°   Wind: 24mph
Humidity: 38%   Direction: 340°NNW
Pressure: 30.23"   Gusts: 30mph
Location:  35.32°N, 82.46°W
Report Text: KAVL 281554Z 34021G26KT 10SM CLR 01/M12 A3023 RMK AO2 PK WND 34026/1547 SLP249 T00061122
Loading
Personal Weather Stations






























Interactive Weather Map New forecast layout! Learn more

10-Day Weather Forecast

Advertisements
Track Severe Weather on mobile